sensor_id;sensor_type;location;lat;lon;timestamp;temperature;humidity
16116;DHT22;8162;47.104;15.432;2022-07-29T00:02:12;20.80;77.90
16116;DHT22;8162;47.104;15.432;2022-07-29T00:04:37;20.70;77.80
16116;DHT22;8162;47.104;15.432;2022-07-29T00:07:04;20.60;77.80
16116;DHT22;8162;47.104;15.432;2022-07-29T00:09:30;20.70;77.80
16116;DHT22;8162;47.104;15.432;2022-07-29T00:11:59;20.60;77.90
16116;DHT22;8162;47.104;15.432;2022-07-29T00:14:24;20.70;78.30
16116;DHT22;8162;47.104;15.432;2022-07-29T00:16:50;20.70;78.30
16116;DHT22;8162;47.104;15.432;2022-07-29T00:19:16;20.70;78.40
16116;DHT22;8162;47.104;15.432;2022-07-29T00:21:41;20.70;78.60
16116;DHT22;8162;47.104;15.432;2022-07-29T00:24:07;20.70;78.60
16116;DHT22;8162;47.104;15.432;2022-07-29T00:26:33;20.70;78.60
16116;DHT22;8162;47.104;15.432;2022-07-29T00:29:00;20.70;78.70
16116;DHT22;8162;47.104;15.432;2022-07-29T00:31:26;20.70;78.70
16116;DHT22;8162;47.104;15.432;2022-07-29T00:33:52;20.70;78.50
16116;DHT22;8162;47.104;15.432;2022-07-29T00:36:17;20.70;78.30
16116;DHT22;8162;47.104;15.432;2022-07-29T00:38:43;20.70;78.40
16116;DHT22;8162;47.104;15.432;2022-07-29T00:41:11;20.70;78.50
16116;DHT22;8162;47.104;15.432;2022-07-29T00:43:37;20.70;78.50
16116;DHT22;8162;47.104;15.432;2022-07-29T00:46:03;20.70;78.70
16116;DHT22;8162;47.104;15.432;2022-07-29T00:48:28;20.60;78.60
16116;DHT22;8162;47.104;15.432;2022-07-29T00:50:56;20.60;78.40
16116;DHT22;8162;47.104;15.432;2022-07-29T00:53:23;20.60;78.30
16116;DHT22;8162;47.104;15.432;2022-07-29T00:55:50;20.60;78.60
16116;DHT22;8162;47.104;15.432;2022-07-29T00:58:15;20.60;78.70
16116;DHT22;8162;47.104;15.432;2022-07-29T01:00:41;20.50;78.80
16116;DHT22;8162;47.104;15.432;2022-07-29T01:03:07;20.60;78.70
16116;DHT22;8162;47.104;15.432;2022-07-29T01:05:34;20.60;78.80
16116;DHT22;8162;47.104;15.432;2022-07-29T01:08:00;20.60;78.80
16116;DHT22;8162;47.104;15.432;2022-07-29T01:10:27;20.60;78.70
16116;DHT22;8162;47.104;15.432;2022-07-29T01:12:56;20.60;78.70
16116;DHT22;8162;47.104;15.432;2022-07-29T01:15:22;20.70;78.80
16116;DHT22;8162;47.104;15.432;2022-07-29T01:18:16;20.60;78.70
16116;DHT22;8162;47.104;15.432;2022-07-29T01:24:07;20.60;78.80
16116;DHT22;8162;47.104;15.432;2022-07-29T01:29:39;20.60;78.50
16116;DHT22;8162;47.104;15.432;2022-07-29T01:32:14;20.60;78.60
16116;DHT22;8162;47.104;15.432;2022-07-29T01:35:06;20.60;78.70
16116;DHT22;8162;47.104;15.432;2022-07-29T01:37:43;20.50;79.10
16116;DHT22;8162;47.104;15.432;2022-07-29T01:40:37;20.50;79.20
16116;DHT22;8162;47.104;15.432;2022-07-29T01:43:27;20.50;79.20
16116;DHT22;8162;47.104;15.432;2022-07-29T01:46:00;20.50;79.30
16116;DHT22;8162;47.104;15.432;2022-07-29T01:48:59;20.40;79.30
16116;DHT22;8162;47.104;15.432;2022-07-29T01:51:46;20.50;79.30
16116;DHT22;8162;47.104;15.432;2022-07-29T01:54:14;20.50;79.20
16116;DHT22;8162;47.104;15.432;2022-07-29T01:56:43;20.50;79.20
16116;DHT22;8162;47.104;15.432;2022-07-29T01:59:10;20.40;79.30
16116;DHT22;8162;47.104;15.432;2022-07-29T02:01:39;20.50;79.20
16116;DHT22;8162;47.104;15.432;2022-07-29T02:04:07;20.40;79.30
16116;DHT22;8162;47.104;15.432;2022-07-29T02:06:37;20.40;79.30
16116;DHT22;8162;47.104;15.432;2022-07-29T02:09:04;20.30;79.20
16116;DHT22;8162;47.104;15.432;2022-07-29T02:11:33;20.30;79.20
16116;DHT22;8162;47.104;15.432;2022-07-29T02:14:00;20.30;79.00
16116;DHT22;8162;47.104;15.432;2022-07-29T02:16:28;20.30;79.00
16116;DHT22;8162;47.104;15.432;2022-07-29T02:18:57;20.20;79.20
16116;DHT22;8162;47.104;15.432;2022-07-29T02:21:25;20.20;79.40
16116;DHT22;8162;47.104;15.432;2022-07-29T02:23:55;20.20;79.40
16116;DHT22;8162;47.104;15.432;2022-07-29T02:26:24;20.10;79.50
16116;DHT22;8162;47.104;15.432;2022-07-29T02:28:53;20.10;79.70
16116;DHT22;8162;47.104;15.432;2022-07-29T02:31:24;20.10;79.60
16116;DHT22;8162;47.104;15.432;2022-07-29T02:33:52;20.10;79.50
16116;DHT22;8162;47.104;15.432;2022-07-29T02:36:21;20.00;79.70
16116;DHT22;8162;47.104;15.432;2022-07-29T02:38:48;20.00;79.90
16116;DHT22;8162;47.104;15.432;2022-07-29T02:41:32;19.90;80.20
16116;DHT22;8162;47.104;15.432;2022-07-29T02:44:10;19.90;80.20
16116;DHT22;8162;47.104;15.432;2022-07-29T02:46:39;19.80;80.00
16116;DHT22;8162;47.104;15.432;2022-07-29T02:50:00;19.80;80.20
16116;DHT22;8162;47.104;15.432;2022-07-29T02:52:02;19.80;80.50
16116;DHT22;8162;47.104;15.432;2022-07-29T02:54:51;19.80;80.60
16116;DHT22;8162;47.104;15.432;2022-07-29T02:57:22;19.70;80.70
16116;DHT22;8162;47.104;15.432;2022-07-29T02:59:54;19.70;80.80
16116;DHT22;8162;47.104;15.432;2022-07-29T03:02:23;19.70;80.90
16116;DHT22;8162;47.104;15.432;2022-07-29T03:04:51;19.70;80.70
16116;DHT22;8162;47.104;15.432;2022-07-29T03:07:18;19.60;80.80
16116;DHT22;8162;47.104;15.432;2022-07-29T03:09:46;19.60;80.90
16116;DHT22;8162;47.104;15.432;2022-07-29T03:12:12;19.60;81.30
16116;DHT22;8162;47.104;15.432;2022-07-29T03:14:39;19.50;81.00
16116;DHT22;8162;47.104;15.432;2022-07-29T03:17:05;19.50;81.10
16116;DHT22;8162;47.104;15.432;2022-07-29T03:19:31;19.50;81.00
16116;DHT22;8162;47.104;15.432;2022-07-29T03:21:58;19.40;81.10
16116;DHT22;8162;47.104;15.432;2022-07-29T03:24:29;19.40;81.10
16116;DHT22;8162;47.104;15.432;2022-07-29T03:26:55;19.30;81.30
16116;DHT22;8162;47.104;15.432;2022-07-29T03:29:21;19.30;81.10
16116;DHT22;8162;47.104;15.432;2022-07-29T03:31:47;19.30;81.20
16116;DHT22;8162;47.104;15.432;2022-07-29T03:34:13;19.30;81.20
16116;DHT22;8162;47.104;15.432;2022-07-29T03:36:38;19.30;81.50
16116;DHT22;8162;47.104;15.432;2022-07-29T03:39:05;19.30;81.40
16116;DHT22;8162;47.104;15.432;2022-07-29T03:41:33;19.30;81.30
16116;DHT22;8162;47.104;15.432;2022-07-29T03:44:02;19.30;81.40
16116;DHT22;8162;47.104;15.432;2022-07-29T03:46:28;19.30;81.50
16116;DHT22;8162;47.104;15.432;2022-07-29T03:48:59;19.20;81.40
16116;DHT22;8162;47.104;15.432;2022-07-29T03:51:26;19.20;81.50
16116;DHT22;8162;47.104;15.432;2022-07-29T03:53:53;19.20;81.70
16116;DHT22;8162;47.104;15.432;2022-07-29T03:56:21;19.20;81.80
16116;DHT22;8162;47.104;15.432;2022-07-29T03:58:49;19.20;82.00
16116;DHT22;8162;47.104;15.432;2022-07-29T04:01:17;19.20;81.90
16116;DHT22;8162;47.104;15.432;2022-07-29T04:03:44;19.20;81.80
16116;DHT22;8162;47.104;15.432;2022-07-29T04:06:13;19.10;81.80
16116;DHT22;8162;47.104;15.432;2022-07-29T04:08:38;19.20;81.60
16116;DHT22;8162;47.104;15.432;2022-07-29T04:11:04;19.20;81.70
16116;DHT22;8162;47.104;15.432;2022-07-29T04:13:31;19.20;81.70
16116;DHT22;8162;47.104;15.432;2022-07-29T04:15:57;19.10;81.80
16116;DHT22;8162;47.104;15.432;2022-07-29T04:18:23;19.10;82.00
16116;DHT22;8162;47.104;15.432;2022-07-29T04:20:49;19.00;82.20
16116;DHT22;8162;47.104;15.432;2022-07-29T04:23:14;19.00;82.20
16116;DHT22;8162;47.104;15.432;2022-07-29T04:25:41;19.10;82.10
16116;DHT22;8162;47.104;15.432;2022-07-29T04:28:08;19.10;82.10
16116;DHT22;8162;47.104;15.432;2022-07-29T04:30:35;19.10;82.20
16116;DHT22;8162;47.104;15.432;2022-07-29T04:33:02;19.10;82.10
16116;DHT22;8162;47.104;15.432;2022-07-29T04:35:29;19.10;82.50
16116;DHT22;8162;47.104;15.432;2022-07-29T04:37:55;19.00;82.30
16116;DHT22;8162;47.104;15.432;2022-07-29T04:40:20;19.10;82.50
16116;DHT22;8162;47.104;15.432;2022-07-29T04:42:46;19.10;82.50
16116;DHT22;8162;47.104;15.432;2022-07-29T04:45:12;19.10;82.50
16116;DHT22;8162;47.104;15.432;2022-07-29T04:47:37;19.10;82.70
16116;DHT22;8162;47.104;15.432;2022-07-29T04:50:04;19.10;82.80
16116;DHT22;8162;47.104;15.432;2022-07-29T04:52:30;19.10;82.80
16116;DHT22;8162;47.104;15.432;2022-07-29T04:54:56;19.00;82.90
16116;DHT22;8162;47.104;15.432;2022-07-29T04:57:21;19.10;82.80
16116;DHT22;8162;47.104;15.432;2022-07-29T04:59:47;19.10;83.00
16116;DHT22;8162;47.104;15.432;2022-07-29T05:02:14;19.10;83.00
16116;DHT22;8162;47.104;15.432;2022-07-29T05:04:39;19.20;83.00
16116;DHT22;8162;47.104;15.432;2022-07-29T05:07:05;19.20;83.10
16116;DHT22;8162;47.104;15.432;2022-07-29T05:09:30;19.20;83.00
16116;DHT22;8162;47.104;15.432;2022-07-29T05:11:57;19.30;82.90
16116;DHT22;8162;47.104;15.432;2022-07-29T05:14:23;19.30;82.70
16116;DHT22;8162;47.104;15.432;2022-07-29T05:16:49;19.40;82.70
16116;DHT22;8162;47.104;15.432;2022-07-29T05:19:16;19.40;82.70
16116;DHT22;8162;47.104;15.432;2022-07-29T05:21:44;19.40;82.60
16116;DHT22;8162;47.104;15.432;2022-07-29T05:24:09;19.40;82.60
16116;DHT22;8162;47.104;15.432;2022-07-29T05:26:35;19.50;82.40
16116;DHT22;8162;47.104;15.432;2022-07-29T05:29:00;19.50;82.20
16116;DHT22;8162;47.104;15.432;2022-07-29T05:31:26;19.50;82.20
16116;DHT22;8162;47.104;15.432;2022-07-29T05:33:52;19.60;82.20
16116;DHT22;8162;47.104;15.432;2022-07-29T05:36:18;19.60;82.10
16116;DHT22;8162;47.104;15.432;2022-07-29T05:38:43;19.70;82.10
16116;DHT22;8162;47.104;15.432;2022-07-29T05:41:09;19.70;82.20
16116;DHT22;8162;47.104;15.432;2022-07-29T05:43:35;19.70;82.10
16116;DHT22;8162;47.104;15.432;2022-07-29T05:46:00;19.70;82.10
16116;DHT22;8162;47.104;15.432;2022-07-29T05:48:26;19.70;82.00
16116;DHT22;8162;47.104;15.432;2022-07-29T05:50:52;19.70;82.00
16116;DHT22;8162;47.104;15.432;2022-07-29T05:53:18;19.70;82.10
16116;DHT22;8162;47.104;15.432;2022-07-29T05:55:43;19.70;82.20
16116;DHT22;8162;47.104;15.432;2022-07-29T05:58:09;19.70;82.30
16116;DHT22;8162;47.104;15.432;2022-07-29T06:00:34;19.80;82.30
16116;DHT22;8162;47.104;15.432;2022-07-29T06:03:00;19.80;82.20
16116;DHT22;8162;47.104;15.432;2022-07-29T06:05:26;19.80;82.20
16116;DHT22;8162;47.104;15.432;2022-07-29T06:07:52;19.80;82.20
16116;DHT22;8162;47.104;15.432;2022-07-29T06:10:18;19.80;82.10
16116;DHT22;8162;47.104;15.432;2022-07-29T06:12:44;19.80;82.20
16116;DHT22;8162;47.104;15.432;2022-07-29T06:15:10;19.80;82.30
16116;DHT22;8162;47.104;15.432;2022-07-29T06:17:36;19.80;82.30
16116;DHT22;8162;47.104;15.432;2022-07-29T06:20:02;19.90;82.40
16116;DHT22;8162;47.104;15.432;2022-07-29T06:22:28;19.90;82.40
16116;DHT22;8162;47.104;15.432;2022-07-29T06:24:54;20.00;82.40
16116;DHT22;8162;47.104;15.432;2022-07-29T06:27:19;20.00;82.40
16116;DHT22;8162;47.104;15.432;2022-07-29T06:29:45;20.00;82.50
16116;DHT22;8162;47.104;15.432;2022-07-29T06:32:11;20.00;82.40
16116;DHT22;8162;47.104;15.432;2022-07-29T06:34:36;20.00;82.40
16116;DHT22;8162;47.104;15.432;2022-07-29T06:37:08;20.00;82.40
16116;DHT22;8162;47.104;15.432;2022-07-29T06:39:35;20.10;82.30
16116;DHT22;8162;47.104;15.432;2022-07-29T06:42:03;20.10;82.30
16116;DHT22;8162;47.104;15.432;2022-07-29T06:44:28;20.10;82.40
16116;DHT22;8162;47.104;15.432;2022-07-29T06:46:55;20.20;82.30
16116;DHT22;8162;47.104;15.432;2022-07-29T06:49:21;20.20;82.40
16116;DHT22;8162;47.104;15.432;2022-07-29T06:51:47;20.30;82.40
16116;DHT22;8162;47.104;15.432;2022-07-29T06:54:13;20.30;82.10
16116;DHT22;8162;47.104;15.432;2022-07-29T06:56:39;20.30;81.90
16116;DHT22;8162;47.104;15.432;2022-07-29T06:59:11;20.30;81.90
16116;DHT22;8162;47.104;15.432;2022-07-29T07:01:39;20.40;81.70
16116;DHT22;8162;47.104;15.432;2022-07-29T07:04:06;20.50;81.50
16116;DHT22;8162;47.104;15.432;2022-07-29T07:06:31;20.50;81.40
16116;DHT22;8162;47.104;15.432;2022-07-29T07:08:57;20.60;81.00
16116;DHT22;8162;47.104;15.432;2022-07-29T07:11:23;20.60;80.70
16116;DHT22;8162;47.104;15.432;2022-07-29T07:13:48;20.70;80.80
16116;DHT22;8162;47.104;15.432;2022-07-29T07:16:14;20.70;80.80
16116;DHT22;8162;47.104;15.432;2022-07-29T07:18:40;20.80;80.80
16116;DHT22;8162;47.104;15.432;2022-07-29T07:21:05;20.80;80.60
16116;DHT22;8162;47.104;15.432;2022-07-29T07:23:31;20.80;80.70
16116;DHT22;8162;47.104;15.432;2022-07-29T07:25:57;20.80;80.50
16116;DHT22;8162;47.104;15.432;2022-07-29T07:28:22;20.90;80.60
16116;DHT22;8162;47.104;15.432;2022-07-29T07:30:48;20.90;80.50
16116;DHT22;8162;47.104;15.432;2022-07-29T07:33:14;21.00;79.90
16116;DHT22;8162;47.104;15.432;2022-07-29T07:35:41;21.10;80.20
16116;DHT22;8162;47.104;15.432;2022-07-29T07:38:06;21.10;80.40
16116;DHT22;8162;47.104;15.432;2022-07-29T07:40:32;21.10;79.70
16116;DHT22;8162;47.104;15.432;2022-07-29T07:42:58;21.20;79.20
16116;DHT22;8162;47.104;15.432;2022-07-29T07:45:23;21.30;76.10
16116;DHT22;8162;47.104;15.432;2022-07-29T07:47:49;21.70;73.70
16116;DHT22;8162;47.104;15.432;2022-07-29T07:50:15;21.80;74.80
16116;DHT22;8162;47.104;15.432;2022-07-29T07:52:51;21.80;75.30
16116;DHT22;8162;47.104;15.432;2022-07-29T07:55:18;21.80;76.40
16116;DHT22;8162;47.104;15.432;2022-07-29T07:57:44;21.90;74.20
16116;DHT22;8162;47.104;15.432;2022-07-29T08:00:12;21.90;74.90
16116;DHT22;8162;47.104;15.432;2022-07-29T08:02:39;22.00;75.60
16116;DHT22;8162;47.104;15.432;2022-07-29T08:05:06;22.00;75.30
16116;DHT22;8162;47.104;15.432;2022-07-29T08:07:32;22.00;75.50
16116;DHT22;8162;47.104;15.432;2022-07-29T08:09:57;22.10;75.60
16116;DHT22;8162;47.104;15.432;2022-07-29T08:12:23;22.10;75.70
16116;DHT22;8162;47.104;15.432;2022-07-29T08:14:49;22.20;74.40
16116;DHT22;8162;47.104;15.432;2022-07-29T08:17:14;22.20;74.60
16116;DHT22;8162;47.104;15.432;2022-07-29T08:19:40;22.20;74.80
16116;DHT22;8162;47.104;15.432;2022-07-29T08:22:06;22.30;74.70
16116;DHT22;8162;47.104;15.432;2022-07-29T08:24:32;22.30;75.20
16116;DHT22;8162;47.104;15.432;2022-07-29T08:27:13;22.40;75.60
16116;DHT22;8162;47.104;15.432;2022-07-29T08:29:39;22.40;74.90
16116;DHT22;8162;47.104;15.432;2022-07-29T08:32:05;22.50;74.00
16116;DHT22;8162;47.104;15.432;2022-07-29T08:34:32;22.60;71.60
16116;DHT22;8162;47.104;15.432;2022-07-29T08:36:57;22.70;73.20
16116;DHT22;8162;47.104;15.432;2022-07-29T08:39:24;22.70;71.10
16116;DHT22;8162;47.104;15.432;2022-07-29T08:41:51;22.70;71.60
16116;DHT22;8162;47.104;15.432;2022-07-29T08:44:17;22.80;69.70
16116;DHT22;8162;47.104;15.432;2022-07-29T08:46:43;23.10;67.90
16116;DHT22;8162;47.104;15.432;2022-07-29T08:49:09;23.20;67.70
16116;DHT22;8162;47.104;15.432;2022-07-29T08:51:36;23.40;65.50
16116;DHT22;8162;47.104;15.432;2022-07-29T08:54:04;23.40;67.30
16116;DHT22;8162;47.104;15.432;2022-07-29T08:56:30;23.50;67.20
16116;DHT22;8162;47.104;15.432;2022-07-29T08:58:58;23.60;68.10
16116;DHT22;8162;47.104;15.432;2022-07-29T09:01:25;23.70;69.40
16116;DHT22;8162;47.104;15.432;2022-07-29T09:03:55;23.70;69.30
16116;DHT22;8162;47.104;15.432;2022-07-29T09:06:22;23.80;67.10
16116;DHT22;8162;47.104;15.432;2022-07-29T09:08:51;24.10;66.30
16116;DHT22;8162;47.104;15.432;2022-07-29T09:11:17;24.20;66.50
16116;DHT22;8162;47.104;15.432;2022-07-29T09:13:43;24.20;66.60
16116;DHT22;8162;47.104;15.432;2022-07-29T09:16:08;24.20;67.00
16116;DHT22;8162;47.104;15.432;2022-07-29T09:18:41;24.30;64.60
16116;DHT22;8162;47.104;15.432;2022-07-29T09:21:09;24.30;65.70
16116;DHT22;8162;47.104;15.432;2022-07-29T09:26:30;24.40;66.10
16116;DHT22;8162;47.104;15.432;2022-07-29T09:28:57;24.40;66.50
16116;DHT22;8162;47.104;15.432;2022-07-29T09:31:35;24.40;67.50
16116;DHT22;8162;47.104;15.432;2022-07-29T09:34:01;24.50;64.70
16116;DHT22;8162;47.104;15.432;2022-07-29T09:36:28;24.50;63.60
16116;DHT22;8162;47.104;15.432;2022-07-29T09:39:00;24.50;62.80
16116;DHT22;8162;47.104;15.432;2022-07-29T09:41:27;24.50;60.10
16116;DHT22;8162;47.104;15.432;2022-07-29T09:44:00;24.50;61.90
16116;DHT22;8162;47.104;15.432;2022-07-29T09:46:27;24.50;58.00
16116;DHT22;8162;47.104;15.432;2022-07-29T09:49:12;24.70;57.40
16116;DHT22;8162;47.104;15.432;2022-07-29T09:51:38;24.80;56.90
16116;DHT22;8162;47.104;15.432;2022-07-29T09:54:22;24.80;58.20
16116;DHT22;8162;47.104;15.432;2022-07-29T09:56:48;24.80;59.80
16116;DHT22;8162;47.104;15.432;2022-07-29T09:59:14;24.90;58.70
16116;DHT22;8162;47.104;15.432;2022-07-29T10:01:40;25.00;60.90
16116;DHT22;8162;47.104;15.432;2022-07-29T10:04:06;25.00;59.00
16116;DHT22;8162;47.104;15.432;2022-07-29T10:06:32;25.10;60.00
16116;DHT22;8162;47.104;15.432;2022-07-29T10:09:08;25.20;55.70
16116;DHT22;8162;47.104;15.432;2022-07-29T10:11:34;25.30;59.20
16116;DHT22;8162;47.104;15.432;2022-07-29T10:14:02;25.30;59.90
16116;DHT22;8162;47.104;15.432;2022-07-29T10:16:29;25.30;60.10
16116;DHT22;8162;47.104;15.432;2022-07-29T10:18:59;25.30;59.90
16116;DHT22;8162;47.104;15.432;2022-07-29T10:21:27;25.20;59.80
16116;DHT22;8162;47.104;15.432;2022-07-29T10:23:53;25.20;61.80
16116;DHT22;8162;47.104;15.432;2022-07-29T10:26:20;25.10;61.40
16116;DHT22;8162;47.104;15.432;2022-07-29T10:28:45;25.00;63.40
16116;DHT22;8162;47.104;15.432;2022-07-29T10:31:19;24.90;65.20
16116;DHT22;8162;47.104;15.432;2022-07-29T10:42:23;24.70;66.20
16116;DHT22;8162;47.104;15.432;2022-07-29T10:44:50;24.60;60.00
16116;DHT22;8162;47.104;15.432;2022-07-29T10:47:34;24.60;62.10
16116;DHT22;8162;47.104;15.432;2022-07-29T10:50:04;24.50;64.30
16116;DHT22;8162;47.104;15.432;2022-07-29T10:55:35;24.60;66.20
16116;DHT22;8162;47.104;15.432;2022-07-29T10:58:23;24.60;65.70
16116;DHT22;8162;47.104;15.432;2022-07-29T11:00:53;24.70;66.00
16116;DHT22;8162;47.104;15.432;2022-07-29T11:03:48;24.70;63.80
16116;DHT22;8162;47.104;15.432;2022-07-29T11:06:17;24.80;63.20
16116;DHT22;8162;47.104;15.432;2022-07-29T11:08:43;25.00;61.80
16116;DHT22;8162;47.104;15.432;2022-07-29T11:13:52;25.30;65.50
16116;DHT22;8162;47.104;15.432;2022-07-29T11:16:21;25.50;62.10
16116;DHT22;8162;47.104;15.432;2022-07-29T11:21:40;25.80;56.40
16116;DHT22;8162;47.104;15.432;2022-07-29T11:24:13;25.90;54.80
16116;DHT22;8162;47.104;15.432;2022-07-29T11:26:39;26.00;55.90
16116;DHT22;8162;47.104;15.432;2022-07-29T11:31:36;26.20;57.20
16116;DHT22;8162;47.104;15.432;2022-07-29T11:39:35;26.70;59.90
16116;DHT22;8162;47.104;15.432;2022-07-29T11:45:44;26.90;57.90
16116;DHT22;8162;47.104;15.432;2022-07-29T11:47:47;26.90;56.10
16116;DHT22;8162;47.104;15.432;2022-07-29T11:50:17;27.00;54.70
16116;DHT22;8162;47.104;15.432;2022-07-29T11:52:47;27.10;54.50
16116;DHT22;8162;47.104;15.432;2022-07-29T11:55:22;27.10;54.30
16116;DHT22;8162;47.104;15.432;2022-07-29T11:57:59;27.00;52.70
16116;DHT22;8162;47.104;15.432;2022-07-29T12:03:01;26.80;55.00
16116;DHT22;8162;47.104;15.432;2022-07-29T12:05:38;26.70;54.20
16116;DHT22;8162;47.104;15.432;2022-07-29T12:08:22;26.60;57.20
16116;DHT22;8162;47.104;15.432;2022-07-29T12:10:49;26.50;59.20
16116;DHT22;8162;47.104;15.432;2022-07-29T12:13:17;26.30;59.60
16116;DHT22;8162;47.104;15.432;2022-07-29T12:15:52;26.20;56.10
16116;DHT22;8162;47.104;15.432;2022-07-29T12:18:20;26.20;58.70
16116;DHT22;8162;47.104;15.432;2022-07-29T12:20:47;26.10;60.90
16116;DHT22;8162;47.104;15.432;2022-07-29T12:23:14;26.00;61.80
16116;DHT22;8162;47.104;15.432;2022-07-29T12:25:42;25.90;63.00
16116;DHT22;8162;47.104;15.432;2022-07-29T12:28:11;25.90;62.90
16116;DHT22;8162;47.104;15.432;2022-07-29T12:30:38;25.80;63.40
16116;DHT22;8162;47.104;15.432;2022-07-29T12:33:12;25.80;63.20
16116;DHT22;8162;47.104;15.432;2022-07-29T12:35:38;25.70;59.60
16116;DHT22;8162;47.104;15.432;2022-07-29T12:38:04;25.70;62.30
16116;DHT22;8162;47.104;15.432;2022-07-29T12:40:30;25.70;59.90
16116;DHT22;8162;47.104;15.432;2022-07-29T12:43:06;25.70;57.80
16116;DHT22;8162;47.104;15.432;2022-07-29T12:45:36;25.70;58.10
16116;DHT22;8162;47.104;15.432;2022-07-29T12:48:02;25.80;59.70
16116;DHT22;8162;47.104;15.432;2022-07-29T12:50:28;25.90;58.20
16116;DHT22;8162;47.104;15.432;2022-07-29T12:52:54;26.00;58.50
16116;DHT22;8162;47.104;15.432;2022-07-29T12:55:46;26.10;59.10
16116;DHT22;8162;47.104;15.432;2022-07-29T13:01:01;26.20;56.50
16116;DHT22;8162;47.104;15.432;2022-07-29T13:03:27;26.20;53.70
16116;DHT22;8162;47.104;15.432;2022-07-29T13:05:53;26.20;57.20
16116;DHT22;8162;47.104;15.432;2022-07-29T13:08:19;26.20;57.10
16116;DHT22;8162;47.104;15.432;2022-07-29T13:10:45;26.10;55.60
16116;DHT22;8162;47.104;15.432;2022-07-29T13:13:14;26.10;54.20
16116;DHT22;8162;47.104;15.432;2022-07-29T13:15:42;26.00;53.80
16116;DHT22;8162;47.104;15.432;2022-07-29T13:18:34;26.00;55.70
16116;DHT22;8162;47.104;15.432;2022-07-29T13:21:14;25.90;56.30
16116;DHT22;8162;47.104;15.432;2022-07-29T13:23:41;25.90;57.70
16116;DHT22;8162;47.104;15.432;2022-07-29T13:26:08;25.90;57.20
16116;DHT22;8162;47.104;15.432;2022-07-29T13:28:34;25.90;58.60
16116;DHT22;8162;47.104;15.432;2022-07-29T13:31:00;26.00;58.70
16116;DHT22;8162;47.104;15.432;2022-07-29T13:33:25;26.10;59.80
16116;DHT22;8162;47.104;15.432;2022-07-29T13:35:51;26.20;56.80
16116;DHT22;8162;47.104;15.432;2022-07-29T13:38:17;26.50;55.20
16116;DHT22;8162;47.104;15.432;2022-07-29T13:40:42;26.80;56.10
16116;DHT22;8162;47.104;15.432;2022-07-29T13:43:11;27.10;55.90
16116;DHT22;8162;47.104;15.432;2022-07-29T13:45:38;27.70;55.50
16116;DHT22;8162;47.104;15.432;2022-07-29T13:48:04;28.60;56.60
16116;DHT22;8162;47.104;15.432;2022-07-29T13:50:32;29.20;54.50
16116;DHT22;8162;47.104;15.432;2022-07-29T13:52:58;29.60;52.70
16116;DHT22;8162;47.104;15.432;2022-07-29T13:55:23;30.00;48.20
16116;DHT22;8162;47.104;15.432;2022-07-29T13:57:49;30.10;49.50
16116;DHT22;8162;47.104;15.432;2022-07-29T14:00:15;30.00;48.60
16116;DHT22;8162;47.104;15.432;2022-07-29T14:02:42;29.60;48.60
16116;DHT22;8162;47.104;15.432;2022-07-29T14:05:08;29.40;50.10
16116;DHT22;8162;47.104;15.432;2022-07-29T14:07:35;29.20;46.30
16116;DHT22;8162;47.104;15.432;2022-07-29T14:10:02;28.80;48.80
16116;DHT22;8162;47.104;15.432;2022-07-29T14:12:27;28.70;50.90
16116;DHT22;8162;47.104;15.432;2022-07-29T14:14:53;28.50;52.20
16116;DHT22;8162;47.104;15.432;2022-07-29T14:17:19;28.30;51.60
16116;DHT22;8162;47.104;15.432;2022-07-29T14:19:44;28.10;52.50
16116;DHT22;8162;47.104;15.432;2022-07-29T14:22:10;28.00;52.50
16116;DHT22;8162;47.104;15.432;2022-07-29T14:24:36;27.90;49.40
16116;DHT22;8162;47.104;15.432;2022-07-29T14:27:02;28.10;49.80
16116;DHT22;8162;47.104;15.432;2022-07-29T14:29:28;28.30;48.80
16116;DHT22;8162;47.104;15.432;2022-07-29T14:31:54;28.20;45.40
16116;DHT22;8162;47.104;15.432;2022-07-29T14:34:19;28.20;48.30
16116;DHT22;8162;47.104;15.432;2022-07-29T14:36:45;28.20;50.30
16116;DHT22;8162;47.104;15.432;2022-07-29T14:39:11;28.20;50.60
16116;DHT22;8162;47.104;15.432;2022-07-29T14:41:37;28.10;50.90
16116;DHT22;8162;47.104;15.432;2022-07-29T14:44:03;28.00;51.60
16116;DHT22;8162;47.104;15.432;2022-07-29T14:46:29;27.80;51.30
16116;DHT22;8162;47.104;15.432;2022-07-29T14:48:55;27.80;53.50
16116;DHT22;8162;47.104;15.432;2022-07-29T14:51:20;27.70;56.00
16116;DHT22;8162;47.104;15.432;2022-07-29T14:53:49;27.60;57.20
16116;DHT22;8162;47.104;15.432;2022-07-29T14:56:17;27.50;57.30
16116;DHT22;8162;47.104;15.432;2022-07-29T14:58:43;27.50;57.30
16116;DHT22;8162;47.104;15.432;2022-07-29T15:01:08;27.30;57.90
16116;DHT22;8162;47.104;15.432;2022-07-29T15:03:34;27.30;57.60
16116;DHT22;8162;47.104;15.432;2022-07-29T15:06:00;27.30;56.50
16116;DHT22;8162;47.104;15.432;2022-07-29T15:08:25;27.30;54.70
16116;DHT22;8162;47.104;15.432;2022-07-29T15:10:53;27.30;54.20
16116;DHT22;8162;47.104;15.432;2022-07-29T15:13:19;27.30;54.40
16116;DHT22;8162;47.104;15.432;2022-07-29T15:15:45;27.30;54.20
16116;DHT22;8162;47.104;15.432;2022-07-29T15:18:12;27.30;51.30
16116;DHT22;8162;47.104;15.432;2022-07-29T15:20:37;27.40;51.60
16116;DHT22;8162;47.104;15.432;2022-07-29T15:23:03;27.30;52.90
16116;DHT22;8162;47.104;15.432;2022-07-29T15:25:28;27.30;52.80
16116;DHT22;8162;47.104;15.432;2022-07-29T15:27:54;27.30;53.50
16116;DHT22;8162;47.104;15.432;2022-07-29T15:30:20;27.40;54.70
16116;DHT22;8162;47.104;15.432;2022-07-29T15:32:46;27.40;53.70
16116;DHT22;8162;47.104;15.432;2022-07-29T15:35:11;27.40;54.70
16116;DHT22;8162;47.104;15.432;2022-07-29T15:37:38;27.40;56.00
16116;DHT22;8162;47.104;15.432;2022-07-29T15:40:05;27.40;54.40
16116;DHT22;8162;47.104;15.432;2022-07-29T15:42:31;27.40;55.20
16116;DHT22;8162;47.104;15.432;2022-07-29T15:44:56;27.40;55.00
16116;DHT22;8162;47.104;15.432;2022-07-29T15:47:22;27.40;54.80
16116;DHT22;8162;47.104;15.432;2022-07-29T15:49:48;27.50;55.00
16116;DHT22;8162;47.104;15.432;2022-07-29T15:52:16;27.60;55.20
16116;DHT22;8162;47.104;15.432;2022-07-29T15:54:42;27.70;54.40
16116;DHT22;8162;47.104;15.432;2022-07-29T15:57:08;27.70;56.30
16116;DHT22;8162;47.104;15.432;2022-07-29T15:59:34;27.70;54.50
16116;DHT22;8162;47.104;15.432;2022-07-29T16:02:00;27.70;53.30
16116;DHT22;8162;47.104;15.432;2022-07-29T16:04:26;27.70;52.70
16116;DHT22;8162;47.104;15.432;2022-07-29T16:06:52;27.50;48.70
16116;DHT22;8162;47.104;15.432;2022-07-29T16:09:18;27.40;54.80
16116;DHT22;8162;47.104;15.432;2022-07-29T16:11:44;27.30;56.60
16116;DHT22;8162;47.104;15.432;2022-07-29T16:14:16;27.20;55.10
16116;DHT22;8162;47.104;15.432;2022-07-29T16:16:42;27.20;55.80
16116;DHT22;8162;47.104;15.432;2022-07-29T16:19:08;27.00;57.30